sensor_id;sensor_type;location;lat;lon;timestamp;temperature;humidity
41678;DHT22;27364;49.026;8.712;2023-07-08T00:00:53;19.80;75.20
41678;DHT22;27364;49.026;8.712;2023-07-08T00:03:19;19.60;78.80
41678;DHT22;27364;49.026;8.712;2023-07-08T00:05:50;19.40;81.50
41678;DHT22;27364;49.026;8.712;2023-07-08T00:08:19;19.30;82.70
41678;DHT22;27364;49.026;8.712;2023-07-08T00:10:46;19.20;83.70
41678;DHT22;27364;49.026;8.712;2023-07-08T00:13:11;19.30;83.30
41678;DHT22;27364;49.026;8.712;2023-07-08T00:15:38;19.30;83.00
41678;DHT22;27364;49.026;8.712;2023-07-08T00:18:15;19.40;82.20
41678;DHT22;27364;49.026;8.712;2023-07-08T00:20:44;19.60;79.40
41678;DHT22;27364;49.026;8.712;2023-07-08T00:23:10;19.50;81.80
41678;DHT22;27364;49.026;8.712;2023-07-08T00:25:36;19.60;81.80
41678;DHT22;27364;49.026;8.712;2023-07-08T00:28:04;19.60;81.10
41678;DHT22;27364;49.026;8.712;2023-07-08T00:30:30;19.60;80.10
41678;DHT22;27364;49.026;8.712;2023-07-08T00:32:57;19.50;82.20
41678;DHT22;27364;49.026;8.712;2023-07-08T00:35:42;19.40;84.90
41678;DHT22;27364;49.026;8.712;2023-07-08T00:38:34;19.30;85.60
41678;DHT22;27364;49.026;8.712;2023-07-08T00:48:44;19.40;86.00
41678;DHT22;27364;49.026;8.712;2023-07-08T00:51:11;19.30;87.60
41678;DHT22;27364;49.026;8.712;2023-07-08T00:53:38;19.30;86.90
41678;DHT22;27364;49.026;8.712;2023-07-08T00:58:46;19.50;82.10
41678;DHT22;27364;49.026;8.712;2023-07-08T01:01:13;19.50;80.10
41678;DHT22;27364;49.026;8.712;2023-07-08T01:03:49;19.50;79.10
41678;DHT22;27364;49.026;8.712;2023-07-08T01:06:19;19.50;79.60
41678;DHT22;27364;49.026;8.712;2023-07-08T01:08:47;19.50;77.70
41678;DHT22;27364;49.026;8.712;2023-07-08T01:11:15;19.50;79.50
41678;DHT22;27364;49.026;8.712;2023-07-08T01:13:43;19.50;78.40
41678;DHT22;27364;49.026;8.712;2023-07-08T01:16:09;19.60;78.80
41678;DHT22;27364;49.026;8.712;2023-07-08T01:18:36;19.60;78.70
41678;DHT22;27364;49.026;8.712;2023-07-08T01:21:04;19.50;78.90
41678;DHT22;27364;49.026;8.712;2023-07-08T01:23:32;19.50;79.10
41678;DHT22;27364;49.026;8.712;2023-07-08T01:25:59;19.50;77.80
41678;DHT22;27364;49.026;8.712;2023-07-08T01:28:27;19.50;78.80
41678;DHT22;27364;49.026;8.712;2023-07-08T01:30:53;19.40;79.20
41678;DHT22;27364;49.026;8.712;2023-07-08T01:33:20;19.40;79.60
41678;DHT22;27364;49.026;8.712;2023-07-08T01:35:47;19.40;78.00
41678;DHT22;27364;49.026;8.712;2023-07-08T01:38:18;19.40;78.50
41678;DHT22;27364;49.026;8.712;2023-07-08T01:40:52;19.40;77.10
41678;DHT22;27364;49.026;8.712;2023-07-08T01:43:18;19.40;77.00
41678;DHT22;27364;49.026;8.712;2023-07-08T01:45:44;19.40;75.60
41678;DHT22;27364;49.026;8.712;2023-07-08T01:48:14;19.50;76.20
41678;DHT22;27364;49.026;8.712;2023-07-08T01:50:50;19.50;75.50
41678;DHT22;27364;49.026;8.712;2023-07-08T01:53:26;19.60;75.90
41678;DHT22;27364;49.026;8.712;2023-07-08T01:55:52;19.60;75.20
41678;DHT22;27364;49.026;8.712;2023-07-08T01:58:18;19.50;73.40
41678;DHT22;27364;49.026;8.712;2023-07-08T02:00:43;19.50;73.90
41678;DHT22;27364;49.026;8.712;2023-07-08T02:03:09;19.60;74.70
41678;DHT22;27364;49.026;8.712;2023-07-08T02:05:35;19.50;73.50
41678;DHT22;27364;49.026;8.712;2023-07-08T02:08:00;19.50;74.00
41678;DHT22;27364;49.026;8.712;2023-07-08T02:10:26;19.50;73.60
41678;DHT22;27364;49.026;8.712;2023-07-08T02:12:52;19.50;74.60
41678;DHT22;27364;49.026;8.712;2023-07-08T02:15:17;19.60;73.20
41678;DHT22;27364;49.026;8.712;2023-07-08T02:17:43;19.50;73.20
41678;DHT22;27364;49.026;8.712;2023-07-08T02:20:09;19.50;72.20
41678;DHT22;27364;49.026;8.712;2023-07-08T02:22:34;19.50;72.30
41678;DHT22;27364;49.026;8.712;2023-07-08T02:25:02;19.40;72.60
41678;DHT22;27364;49.026;8.712;2023-07-08T02:27:27;19.40;74.60
41678;DHT22;27364;49.026;8.712;2023-07-08T02:29:53;19.40;73.40
41678;DHT22;27364;49.026;8.712;2023-07-08T02:32:18;19.40;73.60
41678;DHT22;27364;49.026;8.712;2023-07-08T02:34:44;19.30;74.80
41678;DHT22;27364;49.026;8.712;2023-07-08T02:37:09;19.20;74.70
41678;DHT22;27364;49.026;8.712;2023-07-08T02:39:35;19.30;75.10
41678;DHT22;27364;49.026;8.712;2023-07-08T02:42:00;19.40;74.80
41678;DHT22;27364;49.026;8.712;2023-07-08T02:44:26;19.40;75.10
41678;DHT22;27364;49.026;8.712;2023-07-08T02:46:52;19.40;75.40
41678;DHT22;27364;49.026;8.712;2023-07-08T02:49:17;19.40;74.80
41678;DHT22;27364;49.026;8.712;2023-07-08T02:51:43;19.40;72.40
41678;DHT22;27364;49.026;8.712;2023-07-08T02:54:08;19.50;70.10
41678;DHT22;27364;49.026;8.712;2023-07-08T02:56:33;19.60;71.50
41678;DHT22;27364;49.026;8.712;2023-07-08T02:58:59;19.60;69.60
41678;DHT22;27364;49.026;8.712;2023-07-08T03:01:25;19.70;70.70
41678;DHT22;27364;49.026;8.712;2023-07-08T03:03:52;19.70;68.00
41678;DHT22;27364;49.026;8.712;2023-07-08T03:06:25;19.80;68.10
41678;DHT22;27364;49.026;8.712;2023-07-08T03:08:51;19.70;66.80
41678;DHT22;27364;49.026;8.712;2023-07-08T03:11:16;19.80;68.00
41678;DHT22;27364;49.026;8.712;2023-07-08T03:13:42;19.80;66.40
41678;DHT22;27364;49.026;8.712;2023-07-08T03:16:07;19.80;66.00
41678;DHT22;27364;49.026;8.712;2023-07-08T03:18:38;19.80;66.40
41678;DHT22;27364;49.026;8.712;2023-07-08T03:21:12;19.70;66.80
41678;DHT22;27364;49.026;8.712;2023-07-08T03:23:38;19.70;67.80
41678;DHT22;27364;49.026;8.712;2023-07-08T03:26:03;19.70;69.30
41678;DHT22;27364;49.026;8.712;2023-07-08T03:28:29;19.60;69.10
41678;DHT22;27364;49.026;8.712;2023-07-08T03:30:54;19.50;70.10
41678;DHT22;27364;49.026;8.712;2023-07-08T03:33:21;19.40;71.30
41678;DHT22;27364;49.026;8.712;2023-07-08T03:35:47;19.40;71.10
41678;DHT22;27364;49.026;8.712;2023-07-08T03:38:12;19.40;71.00
41678;DHT22;27364;49.026;8.712;2023-07-08T03:40:38;19.50;70.70
41678;DHT22;27364;49.026;8.712;2023-07-08T03:43:03;19.50;70.90
41678;DHT22;27364;49.026;8.712;2023-07-08T03:45:28;19.50;70.30
41678;DHT22;27364;49.026;8.712;2023-07-08T03:47:54;19.60;70.80
41678;DHT22;27364;49.026;8.712;2023-07-08T03:50:22;19.60;69.10
41678;DHT22;27364;49.026;8.712;2023-07-08T03:52:50;19.60;69.90
41678;DHT22;27364;49.026;8.712;2023-07-08T03:55:16;19.40;74.40
41678;DHT22;27364;49.026;8.712;2023-07-08T03:57:42;19.20;75.00
41678;DHT22;27364;49.026;8.712;2023-07-08T04:00:08;19.00;77.00
41678;DHT22;27364;49.026;8.712;2023-07-08T04:02:41;18.90;77.10
41678;DHT22;27364;49.026;8.712;2023-07-08T04:05:09;18.80;75.80
41678;DHT22;27364;49.026;8.712;2023-07-08T04:07:38;18.70;77.60
41678;DHT22;27364;49.026;8.712;2023-07-08T04:10:03;18.70;76.40
41678;DHT22;27364;49.026;8.712;2023-07-08T04:12:36;18.70;75.70
41678;DHT22;27364;49.026;8.712;2023-07-08T04:15:02;18.70;75.70
41678;DHT22;27364;49.026;8.712;2023-07-08T04:17:28;18.70;75.10
41678;DHT22;27364;49.026;8.712;2023-07-08T04:19:53;18.70;77.00
41678;DHT22;27364;49.026;8.712;2023-07-08T04:22:22;18.70;74.10
41678;DHT22;27364;49.026;8.712;2023-07-08T04:24:47;18.80;73.40
41678;DHT22;27364;49.026;8.712;2023-07-08T04:27:17;18.70;78.20
41678;DHT22;27364;49.026;8.712;2023-07-08T04:29:43;18.50;83.60
41678;DHT22;27364;49.026;8.712;2023-07-08T04:32:09;18.40;85.30
41678;DHT22;27364;49.026;8.712;2023-07-08T04:34:35;18.30;88.30
41678;DHT22;27364;49.026;8.712;2023-07-08T04:37:00;18.10;89.80
41678;DHT22;27364;49.026;8.712;2023-07-08T04:39:27;18.00;90.70
41678;DHT22;27364;49.026;8.712;2023-07-08T04:41:53;17.90;91.50
41678;DHT22;27364;49.026;8.712;2023-07-08T04:44:18;17.90;92.60
41678;DHT22;27364;49.026;8.712;2023-07-08T04:46:56;17.90;93.30
41678;DHT22;27364;49.026;8.712;2023-07-08T04:49:22;17.90;95.20
41678;DHT22;27364;49.026;8.712;2023-07-08T04:51:50;17.80;94.60
41678;DHT22;27364;49.026;8.712;2023-07-08T04:54:15;17.60;96.10
41678;DHT22;27364;49.026;8.712;2023-07-08T04:56:46;17.60;96.10
41678;DHT22;27364;49.026;8.712;2023-07-08T04:59:14;17.70;95.60
41678;DHT22;27364;49.026;8.712;2023-07-08T05:01:40;17.70;95.30
41678;DHT22;27364;49.026;8.712;2023-07-08T05:04:07;17.80;95.30
41678;DHT22;27364;49.026;8.712;2023-07-08T05:06:33;17.90;96.60
41678;DHT22;27364;49.026;8.712;2023-07-08T05:09:00;18.10;94.70
41678;DHT22;27364;49.026;8.712;2023-07-08T05:11:26;18.40;94.20
41678;DHT22;27364;49.026;8.712;2023-07-08T05:13:52;18.50;95.20
41678;DHT22;27364;49.026;8.712;2023-07-08T05:16:18;18.70;93.90
41678;DHT22;27364;49.026;8.712;2023-07-08T05:18:44;18.70;94.10
41678;DHT22;27364;49.026;8.712;2023-07-08T05:21:10;18.90;93.30
41678;DHT22;27364;49.026;8.712;2023-07-08T05:23:36;19.10;89.80
41678;DHT22;27364;49.026;8.712;2023-07-08T05:26:04;19.20;87.40
41678;DHT22;27364;49.026;8.712;2023-07-08T05:28:30;19.50;84.30
41678;DHT22;27364;49.026;8.712;2023-07-08T05:30:56;19.50;91.60
41678;DHT22;27364;49.026;8.712;2023-07-08T05:33:22;19.50;94.00
41678;DHT22;27364;49.026;8.712;2023-07-08T05:35:48;19.40;96.60
41678;DHT22;27364;49.026;8.712;2023-07-08T05:38:14;19.30;96.80
41678;DHT22;27364;49.026;8.712;2023-07-08T05:40:39;19.20;96.70
41678;DHT22;27364;49.026;8.712;2023-07-08T05:43:06;19.20;94.90
41678;DHT22;27364;49.026;8.712;2023-07-08T05:45:31;19.20;97.70
41678;DHT22;27364;49.026;8.712;2023-07-08T05:47:57;19.20;96.40
41678;DHT22;27364;49.026;8.712;2023-07-08T05:50:23;19.30;94.40
41678;DHT22;27364;49.026;8.712;2023-07-08T05:52:48;19.40;93.50
41678;DHT22;27364;49.026;8.712;2023-07-08T05:55:14;19.50;93.20
41678;DHT22;27364;49.026;8.712;2023-07-08T05:57:40;19.60;93.30
41678;DHT22;27364;49.026;8.712;2023-07-08T06:00:06;19.70;92.60
41678;DHT22;27364;49.026;8.712;2023-07-08T06:02:32;19.90;92.70
41678;DHT22;27364;49.026;8.712;2023-07-08T06:04:58;19.90;92.60
41678;DHT22;27364;49.026;8.712;2023-07-08T06:07:23;20.00;92.90
41678;DHT22;27364;49.026;8.712;2023-07-08T06:09:49;20.10;91.90
41678;DHT22;27364;49.026;8.712;2023-07-08T06:12:14;20.10;91.40
41678;DHT22;27364;49.026;8.712;2023-07-08T06:14:40;20.30;90.20
41678;DHT22;27364;49.026;8.712;2023-07-08T06:17:05;20.30;89.00
41678;DHT22;27364;49.026;8.712;2023-07-08T06:19:32;20.50;88.40
41678;DHT22;27364;49.026;8.712;2023-07-08T06:21:57;20.50;89.20
41678;DHT22;27364;49.026;8.712;2023-07-08T06:24:23;20.60;89.40
41678;DHT22;27364;49.026;8.712;2023-07-08T06:26:49;20.70;89.60
41678;DHT22;27364;49.026;8.712;2023-07-08T06:29:14;20.90;89.10
41678;DHT22;27364;49.026;8.712;2023-07-08T06:31:41;21.00;89.10
41678;DHT22;27364;49.026;8.712;2023-07-08T06:34:06;21.10;89.20
41678;DHT22;27364;49.026;8.712;2023-07-08T06:36:32;21.10;89.40
41678;DHT22;27364;49.026;8.712;2023-07-08T06:38:58;21.20;90.30
41678;DHT22;27364;49.026;8.712;2023-07-08T06:41:23;21.40;90.50
41678;DHT22;27364;49.026;8.712;2023-07-08T06:43:49;21.50;90.90
41678;DHT22;27364;49.026;8.712;2023-07-08T06:46:15;21.60;90.20
41678;DHT22;27364;49.026;8.712;2023-07-08T06:48:40;21.70;90.00
41678;DHT22;27364;49.026;8.712;2023-07-08T06:51:06;21.80;90.10
41678;DHT22;27364;49.026;8.712;2023-07-08T06:53:32;22.00;90.50
41678;DHT22;27364;49.026;8.712;2023-07-08T06:55:58;22.10;90.80
41678;DHT22;27364;49.026;8.712;2023-07-08T06:58:23;22.20;90.90
41678;DHT22;27364;49.026;8.712;2023-07-08T07:00:49;22.30;90.60
41678;DHT22;27364;49.026;8.712;2023-07-08T07:03:14;22.40;90.70
41678;DHT22;27364;49.026;8.712;2023-07-08T07:05:40;22.60;91.30
41678;DHT22;27364;49.026;8.712;2023-07-08T07:08:06;22.60;90.10
41678;DHT22;27364;49.026;8.712;2023-07-08T07:10:33;22.70;89.70
41678;DHT22;27364;49.026;8.712;2023-07-08T07:12:59;22.80;90.60
41678;DHT22;27364;49.026;8.712;2023-07-08T07:15:25;22.90;90.30
41678;DHT22;27364;49.026;8.712;2023-07-08T07:17:50;23.00;87.90
41678;DHT22;27364;49.026;8.712;2023-07-08T07:20:16;23.00;89.30
41678;DHT22;27364;49.026;8.712;2023-07-08T07:22:42;23.10;88.80
41678;DHT22;27364;49.026;8.712;2023-07-08T07:25:07;23.20;88.20
41678;DHT22;27364;49.026;8.712;2023-07-08T07:27:33;23.20;89.10
41678;DHT22;27364;49.026;8.712;2023-07-08T07:29:58;23.50;85.90
41678;DHT22;27364;49.026;8.712;2023-07-08T07:32:25;23.50;86.00
41678;DHT22;27364;49.026;8.712;2023-07-08T07:34:51;23.40;87.00
41678;DHT22;27364;49.026;8.712;2023-07-08T07:37:19;23.50;86.60
41678;DHT22;27364;49.026;8.712;2023-07-08T07:39:45;23.40;87.00
41678;DHT22;27364;49.026;8.712;2023-07-08T07:42:12;23.50;89.00
41678;DHT22;27364;49.026;8.712;2023-07-08T07:44:38;23.40;88.70
41678;DHT22;27364;49.026;8.712;2023-07-08T07:47:08;23.40;89.00
41678;DHT22;27364;49.026;8.712;2023-07-08T07:49:34;23.50;88.00
41678;DHT22;27364;49.026;8.712;2023-07-08T07:52:00;23.50;89.00
41678;DHT22;27364;49.026;8.712;2023-07-08T07:54:25;23.50;88.60
41678;DHT22;27364;49.026;8.712;2023-07-08T07:56:51;23.60;89.30
41678;DHT22;27364;49.026;8.712;2023-07-08T07:59:17;23.60;89.00
41678;DHT22;27364;49.026;8.712;2023-07-08T08:01:43;23.70;88.50
41678;DHT22;27364;49.026;8.712;2023-07-08T08:04:10;23.70;89.50
41678;DHT22;27364;49.026;8.712;2023-07-08T08:06:35;23.70;87.40
41678;DHT22;27364;49.026;8.712;2023-07-08T08:09:01;23.80;87.90
41678;DHT22;27364;49.026;8.712;2023-07-08T08:11:26;23.90;89.20
41678;DHT22;27364;49.026;8.712;2023-07-08T08:13:53;24.10;86.70
41678;DHT22;27364;49.026;8.712;2023-07-08T08:16:20;24.10;88.30
41678;DHT22;27364;49.026;8.712;2023-07-08T08:18:45;24.00;88.30
41678;DHT22;27364;49.026;8.712;2023-07-08T08:21:11;24.00;86.50
41678;DHT22;27364;49.026;8.712;2023-07-08T08:23:36;24.10;85.70
41678;DHT22;27364;49.026;8.712;2023-07-08T08:26:02;24.10;86.70
41678;DHT22;27364;49.026;8.712;2023-07-08T08:28:27;24.10;88.00
41678;DHT22;27364;49.026;8.712;2023-07-08T08:30:53;24.20;88.60
41678;DHT22;27364;49.026;8.712;2023-07-08T08:33:19;24.30;87.60
41678;DHT22;27364;49.026;8.712;2023-07-08T08:35:45;24.40;88.40
41678;DHT22;27364;49.026;8.712;2023-07-08T08:38:11;24.60;84.80
41678;DHT22;27364;49.026;8.712;2023-07-08T08:40:39;24.60;82.40
41678;DHT22;27364;49.026;8.712;2023-07-08T08:43:06;24.70;84.50
41678;DHT22;27364;49.026;8.712;2023-07-08T08:48:21;24.70;83.90
41678;DHT22;27364;49.026;8.712;2023-07-08T08:50:56;24.90;82.90
41678;DHT22;27364;49.026;8.712;2023-07-08T08:53:26;25.00;81.90
41678;DHT22;27364;49.026;8.712;2023-07-08T08:55:58;25.10;82.90
41678;DHT22;27364;49.026;8.712;2023-07-08T08:58:33;25.20;81.60
41678;DHT22;27364;49.026;8.712;2023-07-08T09:01:06;25.20;82.10
41678;DHT22;27364;49.026;8.712;2023-07-08T09:03:54;25.40;81.10
41678;DHT22;27364;49.026;8.712;2023-07-08T09:06:27;25.60;81.20
41678;DHT22;27364;49.026;8.712;2023-07-08T09:08:54;25.70;81.60
41678;DHT22;27364;49.026;8.712;2023-07-08T09:11:51;25.80;83.00
41678;DHT22;27364;49.026;8.712;2023-07-08T09:17:22;26.00;80.40
41678;DHT22;27364;49.026;8.712;2023-07-08T09:19:59;26.00;82.20
41678;DHT22;27364;49.026;8.712;2023-07-08T09:22:36;26.20;81.10
41678;DHT22;27364;49.026;8.712;2023-07-08T09:25:36;26.30;81.30
41678;DHT22;27364;49.026;8.712;2023-07-08T09:28:05;26.40;80.60
41678;DHT22;27364;49.026;8.712;2023-07-08T09:30:30;26.50;78.20
41678;DHT22;27364;49.026;8.712;2023-07-08T09:32:57;26.60;76.20
41678;DHT22;27364;49.026;8.712;2023-07-08T09:35:27;26.60;76.00
41678;DHT22;27364;49.026;8.712;2023-07-08T09:37:54;26.70;77.40
41678;DHT22;27364;49.026;8.712;2023-07-08T09:40:22;26.90;79.00
41678;DHT22;27364;49.026;8.712;2023-07-08T09:42:54;26.90;75.50
41678;DHT22;27364;49.026;8.712;2023-07-08T09:45:22;27.00;74.70
41678;DHT22;27364;49.026;8.712;2023-07-08T09:47:53;27.00;74.70
41678;DHT22;27364;49.026;8.712;2023-07-08T09:50:24;27.10;72.10
41678;DHT22;27364;49.026;8.712;2023-07-08T09:52:54;27.20;67.10
41678;DHT22;27364;49.026;8.712;2023-07-08T09:55:20;27.20;65.30
41678;DHT22;27364;49.026;8.712;2023-07-08T09:57:48;27.40;65.60
41678;DHT22;27364;49.026;8.712;2023-07-08T10:00:17;27.40;61.90
41678;DHT22;27364;49.026;8.712;2023-07-08T10:02:53;27.50;62.00
41678;DHT22;27364;49.026;8.712;2023-07-08T10:05:23;27.50;63.50
41678;DHT22;27364;49.026;8.712;2023-07-08T10:07:54;27.70;63.00
41678;DHT22;27364;49.026;8.712;2023-07-08T10:10:35;27.80;64.20
41678;DHT22;27364;49.026;8.712;2023-07-08T10:13:04;27.90;63.40
41678;DHT22;27364;49.026;8.712;2023-07-08T10:15:41;27.90;60.00
41678;DHT22;27364;49.026;8.712;2023-07-08T10:18:13;28.00;60.90
41678;DHT22;27364;49.026;8.712;2023-07-08T10:26:33;28.20;60.80
41678;DHT22;27364;49.026;8.712;2023-07-08T10:35:12;28.20;58.50
41678;DHT22;27364;49.026;8.712;2023-07-08T10:40:34;28.30;58.10
41678;DHT22;27364;49.026;8.712;2023-07-08T10:43:24;28.50;59.50
41678;DHT22;27364;49.026;8.712;2023-07-08T10:46:16;28.50;58.90
41678;DHT22;27364;49.026;8.712;2023-07-08T10:52:12;28.70;58.30
41678;DHT22;27364;49.026;8.712;2023-07-08T10:54:50;28.80;57.50
41678;DHT22;27364;49.026;8.712;2023-07-08T11:03:08;29.00;55.90
41678;DHT22;27364;49.026;8.712;2023-07-08T11:05:46;29.00;56.30
41678;DHT22;27364;49.026;8.712;2023-07-08T11:08:35;29.10;56.10
41678;DHT22;27364;49.026;8.712;2023-07-08T11:13:39;29.30;54.50
41678;DHT22;27364;49.026;8.712;2023-07-08T11:16:26;29.20;54.80
41678;DHT22;27364;49.026;8.712;2023-07-08T11:19:03;29.20;53.70
41678;DHT22;27364;49.026;8.712;2023-07-08T11:21:35;29.30;56.00
41678;DHT22;27364;49.026;8.712;2023-07-08T11:24:22;29.40;54.10
41678;DHT22;27364;49.026;8.712;2023-07-08T11:26:59;29.50;55.40
41678;DHT22;27364;49.026;8.712;2023-07-08T11:29:32;29.50;56.80
41678;DHT22;27364;49.026;8.712;2023-07-08T11:32:00;29.60;56.80
41678;DHT22;27364;49.026;8.712;2023-07-08T11:34:28;29.70;53.80
41678;DHT22;27364;49.026;8.712;2023-07-08T11:36:55;29.90;52.40
41678;DHT22;27364;49.026;8.712;2023-07-08T11:39:28;29.80;53.30
41678;DHT22;27364;49.026;8.712;2023-07-08T11:42:05;29.90;54.20
41678;DHT22;27364;49.026;8.712;2023-07-08T11:44:42;29.90;51.90
41678;DHT22;27364;49.026;8.712;2023-07-08T11:47:17;30.00;52.50
41678;DHT22;27364;49.026;8.712;2023-07-08T11:49:43;30.10;53.50
41678;DHT22;27364;49.026;8.712;2023-07-08T11:52:18;30.10;52.70
41678;DHT22;27364;49.026;8.712;2023-07-08T11:54:48;30.20;56.20
41678;DHT22;27364;49.026;8.712;2023-07-08T11:57:29;30.30;57.40
41678;DHT22;27364;49.026;8.712;2023-07-08T12:06:00;30.40;54.10
41678;DHT22;27364;49.026;8.712;2023-07-08T12:08:36;30.40;56.60
41678;DHT22;27364;49.026;8.712;2023-07-08T12:11:03;30.30;54.50
41678;DHT22;27364;49.026;8.712;2023-07-08T12:13:29;30.30;53.90
41678;DHT22;27364;49.026;8.712;2023-07-08T12:15:55;30.20;56.00
41678;DHT22;27364;49.026;8.712;2023-07-08T12:18:21;30.20;54.40
41678;DHT22;27364;49.026;8.712;2023-07-08T12:20:54;30.30;54.40
41678;DHT22;27364;49.026;8.712;2023-07-08T12:23:23;30.40;56.10
41678;DHT22;27364;49.026;8.712;2023-07-08T12:25:49;30.40;54.20
41678;DHT22;27364;49.026;8.712;2023-07-08T12:28:15;30.40;53.60
41678;DHT22;27364;49.026;8.712;2023-07-08T12:30:43;30.50;55.70
41678;DHT22;27364;49.026;8.712;2023-07-08T12:33:28;30.60;55.20
41678;DHT22;27364;49.026;8.712;2023-07-08T12:35:55;30.60;53.10
41678;DHT22;27364;49.026;8.712;2023-07-08T12:40:54;30.70;55.10
41678;DHT22;27364;49.026;8.712;2023-07-08T12:43:20;30.70;55.90
41678;DHT22;27364;49.026;8.712;2023-07-08T12:45:47;30.60;53.90
41678;DHT22;27364;49.026;8.712;2023-07-08T12:48:12;30.70;55.60
41678;DHT22;27364;49.026;8.712;2023-07-08T12:50:38;30.70;57.00
41678;DHT22;27364;49.026;8.712;2023-07-08T12:53:05;30.60;53.80
41678;DHT22;27364;49.026;8.712;2023-07-08T12:55:38;30.60;54.80
41678;DHT22;27364;49.026;8.712;2023-07-08T12:58:04;30.70;55.90
41678;DHT22;27364;49.026;8.712;2023-07-08T13:00:36;30.70;56.80
41678;DHT22;27364;49.026;8.712;2023-07-08T13:05:33;30.80;55.10
41678;DHT22;27364;49.026;8.712;2023-07-08T13:07:59;30.80;53.90
41678;DHT22;27364;49.026;8.712;2023-07-08T13:10:26;30.80;54.90
41678;DHT22;27364;49.026;8.712;2023-07-08T13:12:56;30.80;53.30
41678;DHT22;27364;49.026;8.712;2023-07-08T13:15:27;30.90;52.30
41678;DHT22;27364;49.026;8.712;2023-07-08T13:17:54;31.00;51.00
41678;DHT22;27364;49.026;8.712;2023-07-08T13:20:20;31.00;52.20
41678;DHT22;27364;49.026;8.712;2023-07-08T13:22:51;30.90;51.30
41678;DHT22;27364;49.026;8.712;2023-07-08T13:25:18;30.90;52.20
41678;DHT22;27364;49.026;8.712;2023-07-08T13:27:54;30.80;52.10
41678;DHT22;27364;49.026;8.712;2023-07-08T13:30:24;30.70;51.40
41678;DHT22;27364;49.026;8.712;2023-07-08T13:32:57;30.80;53.50
41678;DHT22;27364;49.026;8.712;2023-07-08T13:35:39;30.80;54.40
41678;DHT22;27364;49.026;8.712;2023-07-08T13:38:06;30.90;53.50
41678;DHT22;27364;49.026;8.712;2023-07-08T13:40:47;31.00;53.80
41678;DHT22;27364;49.026;8.712;2023-07-08T13:43:13;31.00;51.50
41678;DHT22;27364;49.026;8.712;2023-07-08T13:45:43;30.90;49.40
41678;DHT22;27364;49.026;8.712;2023-07-08T13:51:14;31.00;50.30
41678;DHT22;27364;49.026;8.712;2023-07-08T13:53:50;31.20;50.00
41678;DHT22;27364;49.026;8.712;2023-07-08T13:56:25;31.10;49.50
41678;DHT22;27364;49.026;8.712;2023-07-08T13:58:59;31.00;51.20
41678;DHT22;27364;49.026;8.712;2023-07-08T14:01:26;31.00;51.30
41678;DHT22;27364;49.026;8.712;2023-07-08T14:03:54;31.10;51.40
41678;DHT22;27364;49.026;8.712;2023-07-08T14:06:22;31.10;52.70
41678;DHT22;27364;49.026;8.712;2023-07-08T14:08:48;31.40;50.40
41678;DHT22;27364;49.026;8.712;2023-07-08T14:11:14;31.40;50.70
41678;DHT22;27364;49.026;8.712;2023-07-08T14:13:39;31.30;52.10
41678;DHT22;27364;49.026;8.712;2023-07-08T14:16:29;31.40;50.90
41678;DHT22;27364;49.026;8.712;2023-07-08T14:18:56;31.20;47.50
41678;DHT22;27364;49.026;8.712;2023-07-08T14:21:23;31.30;48.80
41678;DHT22;27364;49.026;8.712;2023-07-08T14:23:48;31.20;47.60
41678;DHT22;27364;49.026;8.712;2023-07-08T14:26:14;31.30;48.60
41678;DHT22;27364;49.026;8.712;2023-07-08T14:28:40;31.60;49.60
41678;DHT22;27364;49.026;8.712;2023-07-08T14:31:12;31.70;48.10
41678;DHT22;27364;49.026;8.712;2023-07-08T14:33:40;31.80;49.40
41678;DHT22;27364;49.026;8.712;2023-07-08T14:36:10;32.10;49.90
41678;DHT22;27364;49.026;8.712;2023-07-08T14:38:36;31.90;48.80
41678;DHT22;27364;49.026;8.712;2023-07-08T14:41:02;31.90;48.70
41678;DHT22;27364;49.026;8.712;2023-07-08T14:43:29;31.80;49.70
41678;DHT22;27364;49.026;8.712;2023-07-08T14:45:56;31.70;49.60
41678;DHT22;27364;49.026;8.712;2023-07-08T14:48:23;31.70;49.40
41678;DHT22;27364;49.026;8.712;2023-07-08T14:50:49;31.60;50.70
41678;DHT22;27364;49.026;8.712;2023-07-08T14:53:15;31.40;50.30
41678;DHT22;27364;49.026;8.712;2023-07-08T14:55:42;31.30;49.30
41678;DHT22;27364;49.026;8.712;2023-07-08T14:58:14;31.20;49.80
41678;DHT22;27364;49.026;8.712;2023-07-08T15:00:41;31.10;51.20
41678;DHT22;27364;49.026;8.712;2023-07-08T15:03:07;31.00;51.00
41678;DHT22;27364;49.026;8.712;2023-07-08T15:05:32;31.00;53.40
41678;DHT22;27364;49.026;8.712;2023-07-08T15:07:58;31.00;52.50
41678;DHT22;27364;49.026;8.712;2023-07-08T15:10:26;31.00;50.50
41678;DHT22;27364;49.026;8.712;2023-07-08T15:12:54;31.00;50.40
41678;DHT22;27364;49.026;8.712;2023-07-08T15:15:26;30.90;52.30
41678;DHT22;27364;49.026;8.712;2023-07-08T15:17:52;30.90;52.00
41678;DHT22;27364;49.026;8.712;2023-07-08T15:20:18;30.70;50.90
41678;DHT22;27364;49.026;8.712;2023-07-08T15:22:45;30.60;49.60
41678;DHT22;27364;49.026;8.712;2023-07-08T15:25:12;30.50;50.70
41678;DHT22;27364;49.026;8.712;2023-07-08T15:27:40;30.50;51.00
41678;DHT22;27364;49.026;8.712;2023-07-08T15:30:21;30.50;50.70
41678;DHT22;27364;49.026;8.712;2023-07-08T15:32:47;30.60;50.00
41678;DHT22;27364;49.026;8.712;2023-07-08T15:35:20;30.60;51.00
41678;DHT22;27364;49.026;8.712;2023-07-08T15:37:46;30.50;50.40
41678;DHT22;27364;49.026;8.712;2023-07-08T15:40:14;30.40;51.30
41678;DHT22;27364;49.026;8.712;2023-07-08T15:42:40;30.40;52.50
41678;DHT22;27364;49.026;8.712;2023-07-08T15:47:44;30.40;52.00
41678;DHT22;27364;49.026;8.712;2023-07-08T15:50:12;30.30;52.30
41678;DHT22;27364;49.026;8.712;2023-07-08T15:52:38;30.30;51.40
41678;DHT22;27364;49.026;8.712;2023-07-08T15:55:04;30.20;51.70
41678;DHT22;27364;49.026;8.712;2023-07-08T15:57:30;30.10;51.60
41678;DHT22;27364;49.026;8.712;2023-07-08T15:59:56;30.10;52.30
41678;DHT22;27364;49.026;8.712;2023-07-08T16:02:27;30.10;53.70
41678;DHT22;27364;49.026;8.712;2023-07-08T16:04:54;30.00;52.70
41678;DHT22;27364;49.026;8.712;2023-07-08T16:07:19;30.00;51.90
41678;DHT22;27364;49.026;8.712;2023-07-08T16:09:45;30.00;50.60
41678;DHT22;27364;49.026;8.712;2023-07-08T16:12:18;30.10;51.00
41678;DHT22;27364;49.026;8.712;2023-07-08T16:14:44;30.10;50.70
41678;DHT22;27364;49.026;8.712;2023-07-08T16:17:10;30.00;50.50
41678;DHT22;27364;49.026;8.712;2023-07-08T16:19:36;30.00;51.10
41678;DHT22;27364;49.026;8.712;2023-07-08T16:22:02;30.00;51.50
41678;DHT22;27364;49.026;8.712;2023-07-08T16:24:28;30.00;50.10
41678;DHT22;27364;49.026;8.712;2023-07-08T16:26:54;29.90;51.40
41678;DHT22;27364;49.026;8.712;2023-07-08T16:29:21;29.90;50.60
41678;DHT22;27364;49.026;8.712;2023-07-08T16:31:47;29.80;49.50
41678;DHT22;27364;49.026;8.712;2023-07-08T16:34:13;29.80;50.70
41678;DHT22;27364;49.026;8.712;2023-07-08T16:36:39;29.70;50.30